EJU57TM LDSP-EHAM
Flight info
| Callsign | EJU57TM |
|---|---|
| Flight time | 2h 7m |
| Altitude | 36000 |
| Route | SIRMI DCT GORPA DCT LIMRA DCT LAMSI DCT RUDNO DCT MAPOX DCT NORKU |
| Aircraft | A320/M-SDE2E3FGHIJ1RWXYZ/LB1 |
Departure
| Time | 2026-04-27 14:08 |
|---|---|
| Airport | Split Saint Jerome Airport (LDSP) |
Arrival
| Time | 2026-04-27 16:16 |
|---|---|
| Airport | Amsterdam Airport Schiphol (EHAM) |
| Time | Latitude | Longitude | Altitude | Speed | Heading |
|---|---|---|---|---|---|
| 2026-04-27 13:43 | 43.53728 | 16.29877 | 68 ft | 0 kts | 115° |
| 2026-04-27 14:00 | 43.53728 | 16.29880 | 68 ft | 1 kts | 102° |
| 2026-04-27 14:00 | 43.53735 | 16.29884 | 59 ft | 2 kts | 36° |
| 2026-04-27 14:01 | 43.53746 | 16.29888 | 60 ft | 3 kts | 4° |
| 2026-04-27 14:01 | 43.53784 | 16.29892 | 68 ft | 7 kts | 5° |
| 2026-04-27 14:01 | 43.53825 | 16.29915 | 62 ft | 7 kts | 38° |
| 2026-04-27 14:01 | 43.53863 | 16.29979 | 61 ft | 8 kts | 52° |
| 2026-04-27 14:02 | 43.53895 | 16.30036 | 65 ft | 5 kts | 52° |
| 2026-04-27 14:02 | 43.53916 | 16.30063 | 63 ft | 3 kts | 21° |
| 2026-04-27 14:02 | 43.53920 | 16.30065 | 63 ft | 0 kts | 19° |
| 2026-04-27 14:04 | 43.53932 | 16.30070 | 62 ft | 8 kts | 17° |
| 2026-04-27 14:04 | 43.54027 | 16.30107 | 62 ft | 17 kts | 15° |
| 2026-04-27 14:04 | 43.54128 | 16.30217 | 61 ft | 24 kts | 53° |
| 2026-04-27 14:05 | 43.54246 | 16.30432 | 56 ft | 28 kts | 53° |
| 2026-04-27 14:05 | 43.54370 | 16.30655 | 53 ft | 30 kts | 52° |
| 2026-04-27 14:05 | 43.54490 | 16.30869 | 50 ft | 24 kts | 53° |
| 2026-04-27 14:05 | 43.54548 | 16.30991 | 52 ft | 12 kts | 71° |
| 2026-04-27 14:06 | 43.54563 | 16.31061 | 50 ft | 4 kts | 50° |
| 2026-04-27 14:06 | 43.54573 | 16.31056 | 53 ft | 1 kts | 311° |
| 2026-04-27 14:06 | 43.54574 | 16.31032 | 53 ft | 5 kts | 266° |
| 2026-04-27 14:06 | 43.54561 | 16.30999 | 52 ft | 1 kts | 232° |
| 2026-04-27 14:07 | 43.54560 | 16.30999 | 52 ft | 0 kts | 232° |
| 2026-04-27 14:07 | 43.54560 | 16.30998 | 47 ft | 1 kts | 232° |
| 2026-04-27 14:08 | 43.54492 | 16.30876 | 50 ft | 48 kts | 232° |
| 2026-04-27 14:08 | 43.54148 | 16.30255 | 58 ft | 112 kts | 233° |
| 2026-04-27 14:08 | 43.53579 | 16.29226 | 102 ft | 159 kts | 231° |
| 2026-04-27 14:08 | 43.52890 | 16.28023 | 831 ft | 158 kts | 230° |
| 2026-04-27 14:09 | 43.52175 | 16.26846 | 1493 ft | 166 kts | 229° |
| 2026-04-27 14:09 | 43.51381 | 16.25552 | 1795 ft | 188 kts | 229° |
| 2026-04-27 14:09 | 43.50487 | 16.24085 | 2055 ft | 212 kts | 228° |
| 2026-04-27 14:09 | 43.49486 | 16.22436 | 2414 ft | 237 kts | 228° |
| 2026-04-27 14:10 | 43.48391 | 16.20619 | 2979 ft | 254 kts | 230° |
| 2026-04-27 14:10 | 43.47253 | 16.18707 | 3764 ft | 261 kts | 231° |
| 2026-04-27 14:10 | 43.46437 | 16.16454 | 4538 ft | 269 kts | 257° |
| 2026-04-27 14:10 | 43.46483 | 16.13874 | 5333 ft | 276 kts | 284° |
| 2026-04-27 14:11 | 43.47434 | 16.11572 | 6158 ft | 282 kts | 314° |
| 2026-04-27 14:11 | 43.48967 | 16.09854 | 6972 ft | 285 kts | 322° |
| 2026-04-27 14:11 | 43.50556 | 16.08218 | 7820 ft | 286 kts | 324° |
| 2026-04-27 14:11 | 43.52336 | 16.06989 | 8585 ft | 291 kts | 345° |
| 2026-04-27 14:12 | 43.54317 | 16.06356 | 9420 ft | 293 kts | 347° |
| 2026-04-27 14:12 | 43.56318 | 16.05741 | 10197 ft | 296 kts | 347° |
| 2026-04-27 14:12 | 43.58400 | 16.05104 | 10490 ft | 318 kts | 347° |
| 2026-04-27 14:12 | 43.60625 | 16.04423 | 10829 ft | 334 kts | 347° |
| 2026-04-27 14:13 | 43.62916 | 16.03718 | 11509 ft | 338 kts | 346° |
| 2026-04-27 14:13 | 43.65213 | 16.03011 | 12265 ft | 339 kts | 346° |
| 2026-04-27 14:13 | 43.67513 | 16.02304 | 13071 ft | 339 kts | 346° |
| 2026-04-27 14:13 | 43.69825 | 16.01592 | 13774 ft | 342 kts | 346° |
| 2026-04-27 14:14 | 43.72158 | 16.00873 | 14388 ft | 345 kts | 346° |
| 2026-04-27 14:14 | 43.74513 | 16.00148 | 15008 ft | 347 kts | 346° |
| 2026-04-27 14:14 | 43.76881 | 15.99418 | 15604 ft | 350 kts | 346° |
| 2026-04-27 14:14 | 43.79271 | 15.98680 | 16201 ft | 354 kts | 346° |
| 2026-04-27 14:15 | 43.81682 | 15.97936 | 16815 ft | 356 kts | 346° |
| 2026-04-27 14:15 | 43.84110 | 15.97188 | 17414 ft | 359 kts | 346° |
| 2026-04-27 14:15 | 43.86558 | 15.96431 | 18008 ft | 362 kts | 345° |
| 2026-04-27 14:15 | 43.89024 | 15.95665 | 18568 ft | 364 kts | 345° |
| 2026-04-27 14:16 | 43.91475 | 15.94907 | 19084 ft | 366 kts | 346° |
| 2026-04-27 14:16 | 43.93969 | 15.94135 | 19609 ft | 368 kts | 346° |
| 2026-04-27 14:16 | 43.96475 | 15.93359 | 20121 ft | 370 kts | 346° |
| 2026-04-27 14:16 | 43.98997 | 15.92576 | 20632 ft | 372 kts | 346° |
| 2026-04-27 14:17 | 44.01527 | 15.91789 | 21111 ft | 374 kts | 346° |
| 2026-04-27 14:17 | 44.04075 | 15.90994 | 21606 ft | 376 kts | 346° |
| 2026-04-27 14:17 | 44.06630 | 15.90193 | 22080 ft | 378 kts | 346° |
| 2026-04-27 14:17 | 44.09204 | 15.89386 | 22568 ft | 380 kts | 346° |
| 2026-04-27 14:18 | 44.11791 | 15.88574 | 23050 ft | 382 kts | 346° |
| 2026-04-27 14:18 | 44.14385 | 15.87760 | 23517 ft | 384 kts | 346° |
| 2026-04-27 14:18 | 44.16999 | 15.86942 | 23920 ft | 386 kts | 346° |
| 2026-04-27 14:18 | 44.19627 | 15.86124 | 24298 ft | 388 kts | 346° |
| 2026-04-27 14:19 | 44.22267 | 15.85303 | 24661 ft | 389 kts | 346° |
| 2026-04-27 14:19 | 44.24916 | 15.84478 | 24977 ft | 391 kts | 346° |
| 2026-04-27 14:19 | 44.27578 | 15.83646 | 25331 ft | 393 kts | 346° |
| 2026-04-27 14:19 | 44.30256 | 15.82805 | 25724 ft | 394 kts | 347° |
| 2026-04-27 14:20 | 44.32937 | 15.81961 | 26089 ft | 396 kts | 347° |
| 2026-04-27 14:20 | 44.35628 | 15.81112 | 26442 ft | 397 kts | 347° |
| 2026-04-27 14:20 | 44.38331 | 15.80256 | 26797 ft | 399 kts | 347° |
| 2026-04-27 14:20 | 44.41045 | 15.79395 | 27132 ft | 401 kts | 347° |
| 2026-04-27 14:21 | 44.43773 | 15.78529 | 27469 ft | 403 kts | 347° |
| 2026-04-27 14:21 | 44.46480 | 15.77669 | 27807 ft | 405 kts | 347° |
| 2026-04-27 14:21 | 44.49236 | 15.76794 | 28170 ft | 406 kts | 347° |
| 2026-04-27 14:21 | 44.51998 | 15.75920 | 28529 ft | 407 kts | 347° |
| 2026-04-27 14:22 | 44.54769 | 15.75046 | 28877 ft | 409 kts | 347° |
| 2026-04-27 14:22 | 44.57551 | 15.74165 | 29194 ft | 410 kts | 347° |
| 2026-04-27 14:22 | 44.60342 | 15.73279 | 29513 ft | 412 kts | 347° |
| 2026-04-27 14:22 | 44.63150 | 15.72387 | 29812 ft | 414 kts | 347° |
| 2026-04-27 14:23 | 44.65966 | 15.71496 | 30112 ft | 415 kts | 347° |
| 2026-04-27 14:23 | 44.68790 | 15.70600 | 30382 ft | 417 kts | 347° |
| 2026-04-27 14:23 | 44.71619 | 15.69699 | 30621 ft | 418 kts | 347° |
| 2026-04-27 14:23 | 44.74462 | 15.68791 | 30835 ft | 420 kts | 347° |
| 2026-04-27 14:24 | 44.77315 | 15.67879 | 31096 ft | 421 kts | 347° |
| 2026-04-27 14:24 | 44.80168 | 15.66966 | 31408 ft | 420 kts | 347° |
| 2026-04-27 14:24 | 44.83016 | 15.66053 | 31732 ft | 419 kts | 347° |
| 2026-04-27 14:24 | 44.85858 | 15.65141 | 32054 ft | 419 kts | 347° |
| 2026-04-27 14:25 | 44.88700 | 15.64232 | 32376 ft | 418 kts | 347° |
| 2026-04-27 14:25 | 44.91531 | 15.63324 | 32723 ft | 417 kts | 346° |
| 2026-04-27 14:25 | 44.94356 | 15.62415 | 33054 ft | 416 kts | 346° |
| 2026-04-27 14:25 | 44.97172 | 15.61509 | 33367 ft | 415 kts | 346° |
| 2026-04-27 14:26 | 44.99955 | 15.60615 | 33697 ft | 414 kts | 346° |
| 2026-04-27 14:26 | 45.02768 | 15.59710 | 34013 ft | 414 kts | 346° |
| 2026-04-27 14:26 | 45.05574 | 15.58803 | 34298 ft | 413 kts | 346° |
| 2026-04-27 14:26 | 45.08374 | 15.57895 | 34549 ft | 413 kts | 346° |
| 2026-04-27 14:27 | 45.11174 | 15.56988 | 34803 ft | 413 kts | 346° |
| 2026-04-27 14:27 | 45.13973 | 15.56082 | 35048 ft | 412 kts | 346° |
| 2026-04-27 14:27 | 45.16768 | 15.55177 | 35256 ft | 412 kts | 346° |
| 2026-04-27 14:27 | 45.19573 | 15.54267 | 35453 ft | 413 kts | 346° |
| 2026-04-27 14:28 | 45.22376 | 15.53351 | 35649 ft | 413 kts | 346° |
| 2026-04-27 14:28 | 45.25178 | 15.52439 | 35856 ft | 413 kts | 346° |
| 2026-04-27 14:28 | 45.27979 | 15.51528 | 36069 ft | 413 kts | 346° |
| 2026-04-27 14:29 | 45.33569 | 15.49713 | 36143 ft | 410 kts | 346° |
| 2026-04-27 14:29 | 45.39123 | 15.47902 | 36147 ft | 409 kts | 346° |
| 2026-04-27 14:30 | 45.44665 | 15.46089 | 36149 ft | 409 kts | 345° |
| 2026-04-27 14:30 | 45.50206 | 15.44268 | 36149 ft | 408 kts | 345° |
| 2026-04-27 14:31 | 45.55747 | 15.42443 | 36153 ft | 408 kts | 345° |
| 2026-04-27 14:31 | 45.61248 | 15.40640 | 36153 ft | 408 kts | 345° |
| 2026-04-27 14:32 | 45.66776 | 15.38821 | 36151 ft | 408 kts | 345° |
| 2026-04-27 14:32 | 45.72301 | 15.36991 | 36157 ft | 408 kts | 345° |
| 2026-04-27 14:33 | 45.77828 | 15.35150 | 36160 ft | 408 kts | 345° |
| 2026-04-27 14:33 | 45.83304 | 15.33027 | 36162 ft | 407 kts | 342° |
| 2026-04-27 14:34 | 45.88744 | 15.30720 | 36162 ft | 407 kts | 342° |
| 2026-04-27 14:34 | 45.94181 | 15.28431 | 36176 ft | 407 kts | 342° |
| 2026-04-27 14:35 | 45.99632 | 15.26195 | 36172 ft | 407 kts | 342° |
| 2026-04-27 14:35 | 46.05082 | 15.23976 | 36165 ft | 407 kts | 342° |
| 2026-04-27 14:36 | 46.10529 | 15.21748 | 36145 ft | 407 kts | 342° |
| 2026-04-27 14:36 | 46.15970 | 15.19506 | 36138 ft | 407 kts | 342° |
| 2026-04-27 14:37 | 46.21423 | 15.17246 | 36150 ft | 408 kts | 342° |
| 2026-04-27 14:37 | 46.26875 | 15.14997 | 36147 ft | 407 kts | 342° |
| 2026-04-27 14:38 | 46.32287 | 15.12746 | 36146 ft | 407 kts | 342° |
| 2026-04-27 14:38 | 46.37740 | 15.10479 | 36146 ft | 407 kts | 342° |
| 2026-04-27 14:39 | 46.43202 | 15.08209 | 36154 ft | 407 kts | 342° |
| 2026-04-27 14:39 | 46.47734 | 15.06314 | 36152 ft | 407 kts | 342° |
| 2026-04-27 14:40 | 46.53179 | 15.04042 | 36138 ft | 407 kts | 342° |
| 2026-04-27 14:40 | 46.58629 | 15.01774 | 36137 ft | 407 kts | 342° |
| 2026-04-27 14:41 | 46.64081 | 14.99486 | 36143 ft | 407 kts | 342° |
| 2026-04-27 14:41 | 46.69521 | 14.97190 | 36140 ft | 407 kts | 342° |
| 2026-04-27 14:42 | 46.74966 | 14.94892 | 36133 ft | 407 kts | 342° |
| 2026-04-27 14:42 | 46.80418 | 14.92596 | 36131 ft | 407 kts | 342° |
| 2026-04-27 14:43 | 46.85861 | 14.90291 | 36146 ft | 407 kts | 342° |
| 2026-04-27 14:43 | 46.91298 | 14.87977 | 36146 ft | 407 kts | 342° |
| 2026-04-27 14:44 | 46.96728 | 14.85672 | 36121 ft | 406 kts | 342° |
| 2026-04-27 14:44 | 47.02158 | 14.83365 | 36126 ft | 406 kts | 342° |
| 2026-04-27 14:45 | 47.07584 | 14.81051 | 36132 ft | 406 kts | 342° |
| 2026-04-27 14:45 | 47.12974 | 14.78749 | 36125 ft | 406 kts | 342° |
| 2026-04-27 14:46 | 47.18393 | 14.76423 | 36120 ft | 406 kts | 342° |
| 2026-04-27 14:46 | 47.23805 | 14.74096 | 36119 ft | 405 kts | 342° |
| 2026-04-27 14:47 | 47.29220 | 14.71767 | 36138 ft | 405 kts | 342° |
| 2026-04-27 14:47 | 47.34628 | 14.69435 | 36132 ft | 405 kts | 342° |
| 2026-04-27 14:48 | 47.40035 | 14.67098 | 36129 ft | 405 kts | 342° |
| 2026-04-27 14:48 | 47.48131 | 14.63595 | 36137 ft | 404 kts | 341° |
| 2026-04-27 14:49 | 47.53518 | 14.61255 | 36161 ft | 403 kts | 341° |
| 2026-04-27 14:49 | 47.58896 | 14.58912 | 36164 ft | 402 kts | 341° |
| 2026-04-27 14:50 | 47.64267 | 14.56566 | 36171 ft | 402 kts | 341° |
| 2026-04-27 14:50 | 47.69629 | 14.54224 | 36159 ft | 402 kts | 341° |
| 2026-04-27 14:51 | 47.74988 | 14.51877 | 36184 ft | 401 kts | 341° |
| 2026-04-27 14:51 | 47.80305 | 14.49536 | 36170 ft | 400 kts | 341° |
| 2026-04-27 14:52 | 47.85638 | 14.47189 | 36161 ft | 399 kts | 341° |
| 2026-04-27 14:52 | 47.90869 | 14.44501 | 36159 ft | 396 kts | 331° |
| 2026-04-27 14:53 | 47.95383 | 14.39877 | 36159 ft | 394 kts | 322° |
| 2026-04-27 14:53 | 47.99740 | 14.34881 | 36159 ft | 395 kts | 322° |
| 2026-04-27 14:54 | 48.04094 | 14.29882 | 36163 ft | 395 kts | 322° |
| 2026-04-27 14:54 | 48.08447 | 14.24871 | 36164 ft | 395 kts | 322° |
| 2026-04-27 14:55 | 48.12794 | 14.19860 | 36152 ft | 394 kts | 321° |
| 2026-04-27 14:55 | 48.17139 | 14.14838 | 36154 ft | 395 kts | 321° |
| 2026-04-27 14:56 | 48.21457 | 14.09830 | 36172 ft | 395 kts | 321° |
| 2026-04-27 14:56 | 48.25798 | 14.04790 | 36198 ft | 395 kts | 321° |
| 2026-04-27 14:57 | 48.30137 | 13.99738 | 36180 ft | 394 kts | 321° |
| 2026-04-27 14:57 | 48.34461 | 13.94678 | 36184 ft | 394 kts | 321° |
| 2026-04-27 14:58 | 48.38785 | 13.89622 | 36165 ft | 393 kts | 321° |
| 2026-04-27 14:58 | 48.43112 | 13.84560 | 36166 ft | 394 kts | 321° |
| 2026-04-27 14:59 | 48.47439 | 13.79482 | 36190 ft | 394 kts | 321° |
| 2026-04-27 14:59 | 48.51732 | 13.74426 | 36190 ft | 393 kts | 320° |
| 2026-04-27 15:00 | 48.56041 | 13.69338 | 36191 ft | 393 kts | 320° |
| 2026-04-27 15:00 | 48.60343 | 13.64245 | 36189 ft | 392 kts | 320° |
| 2026-04-27 15:01 | 48.64637 | 13.59151 | 36182 ft | 392 kts | 320° |
| 2026-04-27 15:01 | 48.68577 | 13.53476 | 36167 ft | 391 kts | 314° |
| 2026-04-27 15:02 | 48.72456 | 13.47666 | 36172 ft | 392 kts | 314° |
| 2026-04-27 15:02 | 48.76328 | 13.41853 | 36193 ft | 392 kts | 314° |
| 2026-04-27 15:03 | 48.80191 | 13.36023 | 36191 ft | 391 kts | 314° |
| 2026-04-27 15:03 | 48.84050 | 13.30188 | 36189 ft | 391 kts | 314° |
| 2026-04-27 15:04 | 48.87906 | 13.24350 | 36188 ft | 391 kts | 314° |
| 2026-04-27 15:04 | 48.91756 | 13.18511 | 36177 ft | 391 kts | 313° |
| 2026-04-27 15:05 | 48.95606 | 13.12651 | 36177 ft | 391 kts | 313° |
| 2026-04-27 15:05 | 48.99428 | 13.06822 | 36178 ft | 392 kts | 313° |
| 2026-04-27 15:06 | 49.03275 | 13.00948 | 36194 ft | 392 kts | 313° |
| 2026-04-27 15:06 | 49.07121 | 12.95068 | 36198 ft | 392 kts | 313° |
| 2026-04-27 15:07 | 49.10964 | 12.89170 | 36195 ft | 392 kts | 313° |
| 2026-04-27 15:07 | 49.14799 | 12.83261 | 36193 ft | 391 kts | 313° |
| 2026-04-27 15:08 | 49.18630 | 12.77344 | 36196 ft | 391 kts | 313° |
| 2026-04-27 15:08 | 49.22457 | 12.71432 | 36196 ft | 391 kts | 313° |
| 2026-04-27 15:09 | 49.26279 | 12.65515 | 36196 ft | 391 kts | 313° |
| 2026-04-27 15:09 | 49.30093 | 12.59590 | 36216 ft | 390 kts | 313° |
| 2026-04-27 15:10 | 49.33862 | 12.53606 | 36197 ft | 389 kts | 308° |
| 2026-04-27 15:10 | 49.37234 | 12.47119 | 36186 ft | 389 kts | 307° |
| 2026-04-27 15:11 | 49.40589 | 12.40597 | 36183 ft | 389 kts | 307° |
| 2026-04-27 15:11 | 49.43935 | 12.34061 | 36176 ft | 390 kts | 307° |
| 2026-04-27 15:12 | 49.47289 | 12.27514 | 36177 ft | 390 kts | 307° |
| 2026-04-27 15:12 | 49.50626 | 12.20999 | 36178 ft | 390 kts | 307° |
| 2026-04-27 15:13 | 49.53978 | 12.14438 | 36163 ft | 390 kts | 306° |
| 2026-04-27 15:13 | 49.57325 | 12.07861 | 36183 ft | 390 kts | 306° |
| 2026-04-27 15:14 | 49.60670 | 12.01262 | 36178 ft | 390 kts | 306° |
| 2026-04-27 15:14 | 49.64007 | 11.94654 | 36174 ft | 390 kts | 306° |
| 2026-04-27 15:15 | 49.67340 | 11.88044 | 36172 ft | 390 kts | 306° |
| 2026-04-27 15:15 | 49.70676 | 11.81424 | 36172 ft | 390 kts | 306° |
| 2026-04-27 15:16 | 49.74009 | 11.74804 | 36154 ft | 390 kts | 306° |
| 2026-04-27 15:16 | 49.77337 | 11.68166 | 36160 ft | 391 kts | 306° |
| 2026-04-27 15:17 | 49.80663 | 11.61510 | 36166 ft | 391 kts | 306° |
| 2026-04-27 15:17 | 49.83984 | 11.54848 | 36171 ft | 391 kts | 306° |
| 2026-04-27 15:18 | 49.87305 | 11.48179 | 36189 ft | 391 kts | 306° |
| 2026-04-27 15:18 | 49.90628 | 11.41494 | 36189 ft | 391 kts | 305° |
| 2026-04-27 15:19 | 49.93918 | 11.34840 | 36184 ft | 391 kts | 305° |
| 2026-04-27 15:19 | 49.97226 | 11.28116 | 36183 ft | 391 kts | 305° |
| 2026-04-27 15:20 | 50.00537 | 11.21396 | 36180 ft | 391 kts | 305° |
| 2026-04-27 15:20 | 50.03845 | 11.14673 | 36177 ft | 392 kts | 305° |
| 2026-04-27 15:21 | 50.07151 | 11.07936 | 36180 ft | 392 kts | 305° |
| 2026-04-27 15:21 | 50.10449 | 11.01190 | 36181 ft | 392 kts | 304° |
| 2026-04-27 15:22 | 50.13744 | 10.94422 | 36200 ft | 392 kts | 304° |
| 2026-04-27 15:22 | 50.17038 | 10.87645 | 36192 ft | 392 kts | 304° |
| 2026-04-27 15:23 | 50.20340 | 10.80859 | 36196 ft | 392 kts | 304° |
| 2026-04-27 15:23 | 50.23627 | 10.74072 | 36194 ft | 392 kts | 304° |
| 2026-04-27 15:24 | 50.26913 | 10.67263 | 36197 ft | 392 kts | 304° |
| 2026-04-27 15:24 | 50.30187 | 10.60445 | 36202 ft | 392 kts | 304° |
| 2026-04-27 15:25 | 50.32908 | 10.54770 | 36191 ft | 392 kts | 304° |
| 2026-04-27 15:25 | 50.36181 | 10.47933 | 36194 ft | 392 kts | 304° |
| 2026-04-27 15:26 | 50.39451 | 10.41085 | 36195 ft | 392 kts | 304° |
| 2026-04-27 15:26 | 50.42715 | 10.34240 | 36207 ft | 392 kts | 304° |
| 2026-04-27 15:27 | 50.45975 | 10.27374 | 36201 ft | 392 kts | 304° |
| 2026-04-27 15:27 | 50.49225 | 10.20495 | 36198 ft | 392 kts | 304° |
| 2026-04-27 15:28 | 50.52478 | 10.13621 | 36198 ft | 392 kts | 304° |
| 2026-04-27 15:28 | 50.55735 | 10.06731 | 36203 ft | 392 kts | 303° |
| 2026-04-27 15:29 | 50.58979 | 9.99825 | 36202 ft | 392 kts | 303° |
| 2026-04-27 15:29 | 50.62221 | 9.92910 | 36204 ft | 392 kts | 303° |
| 2026-04-27 15:30 | 50.65458 | 9.86000 | 36204 ft | 392 kts | 303° |
| 2026-04-27 15:30 | 50.68695 | 9.79060 | 36197 ft | 392 kts | 303° |
| 2026-04-27 15:31 | 50.71923 | 9.72125 | 36195 ft | 392 kts | 303° |
| 2026-04-27 15:31 | 50.75152 | 9.65160 | 36193 ft | 392 kts | 303° |
| 2026-04-27 15:32 | 50.78355 | 9.58243 | 36193 ft | 393 kts | 303° |
| 2026-04-27 15:32 | 50.81577 | 9.51263 | 36196 ft | 393 kts | 303° |
| 2026-04-27 15:33 | 50.84789 | 9.44277 | 36196 ft | 393 kts | 303° |
| 2026-04-27 15:33 | 50.88004 | 9.37290 | 36202 ft | 393 kts | 303° |
| 2026-04-27 15:34 | 50.91218 | 9.30282 | 36208 ft | 393 kts | 303° |
| 2026-04-27 15:34 | 50.94420 | 9.23260 | 36199 ft | 393 kts | 303° |
| 2026-04-27 15:35 | 50.97615 | 9.16234 | 36219 ft | 393 kts | 303° |
| 2026-04-27 15:35 | 51.00818 | 9.09185 | 36217 ft | 393 kts | 302° |
| 2026-04-27 15:36 | 51.04013 | 9.02136 | 36212 ft | 393 kts | 302° |
| 2026-04-27 15:36 | 51.07208 | 8.95079 | 36209 ft | 393 kts | 302° |
| 2026-04-27 15:37 | 51.10391 | 8.88005 | 36205 ft | 393 kts | 302° |
| 2026-04-27 15:37 | 51.13605 | 8.81029 | 36201 ft | 395 kts | 308° |
| 2026-04-27 15:38 | 51.17436 | 8.74709 | 36200 ft | 397 kts | 310° |
| 2026-04-27 15:38 | 51.21281 | 8.68408 | 36201 ft | 397 kts | 310° |
| 2026-04-27 15:39 | 51.25123 | 8.62083 | 36200 ft | 396 kts | 310° |
| 2026-04-27 15:39 | 51.28953 | 8.55748 | 36212 ft | 397 kts | 310° |
| 2026-04-27 15:40 | 51.32784 | 8.49388 | 36209 ft | 397 kts | 310° |
| 2026-04-27 15:40 | 51.36614 | 8.43034 | 36205 ft | 397 kts | 310° |
| 2026-04-27 15:41 | 51.40457 | 8.36664 | 36206 ft | 397 kts | 310° |
| 2026-04-27 15:41 | 51.44285 | 8.30279 | 36208 ft | 397 kts | 309° |
| 2026-04-27 15:42 | 51.48111 | 8.23887 | 36207 ft | 397 kts | 309° |
| 2026-04-27 15:42 | 51.51915 | 8.17508 | 36212 ft | 397 kts | 309° |
| 2026-04-27 15:43 | 51.55725 | 8.11100 | 36235 ft | 397 kts | 309° |
| 2026-04-27 15:43 | 51.59535 | 8.04671 | 36227 ft | 397 kts | 309° |
| 2026-04-27 15:44 | 51.63337 | 7.98227 | 36225 ft | 397 kts | 309° |
| 2026-04-27 15:44 | 51.67134 | 7.91775 | 36222 ft | 397 kts | 309° |
| 2026-04-27 15:45 | 51.70934 | 7.85312 | 36219 ft | 397 kts | 309° |
| 2026-04-27 15:45 | 51.74732 | 7.78846 | 36221 ft | 397 kts | 309° |
| 2026-04-27 15:46 | 51.78524 | 7.72369 | 36219 ft | 397 kts | 309° |
| 2026-04-27 15:46 | 51.82315 | 7.65873 | 36238 ft | 397 kts | 309° |
| 2026-04-27 15:47 | 51.86082 | 7.59405 | 36230 ft | 397 kts | 309° |
| 2026-04-27 15:47 | 51.89881 | 7.52871 | 36049 ft | 399 kts | 309° |
| 2026-04-27 15:48 | 51.91777 | 7.49606 | 35797 ft | 398 kts | 308° |
| 2026-04-27 15:48 | 51.93671 | 7.46335 | 35553 ft | 397 kts | 308° |
| 2026-04-27 15:48 | 51.95559 | 7.43075 | 35272 ft | 395 kts | 308° |
| 2026-04-27 15:49 | 51.99273 | 7.36640 | 34321 ft | 388 kts | 307° |
| 2026-04-27 15:49 | 52.01107 | 7.33448 | 33777 ft | 385 kts | 307° |
| 2026-04-27 15:49 | 52.02923 | 7.30285 | 33282 ft | 381 kts | 307° |
| 2026-04-27 15:49 | 52.04718 | 7.27156 | 32791 ft | 377 kts | 307° |
| 2026-04-27 15:50 | 52.06500 | 7.24050 | 32327 ft | 374 kts | 307° |
| 2026-04-27 15:50 | 52.08266 | 7.20971 | 31836 ft | 371 kts | 308° |
| 2026-04-27 15:50 | 52.10016 | 7.17916 | 31346 ft | 368 kts | 308° |
| 2026-04-27 15:50 | 52.11751 | 7.14879 | 30884 ft | 365 kts | 307° |
| 2026-04-27 15:51 | 52.13459 | 7.11889 | 30426 ft | 362 kts | 308° |
| 2026-04-27 15:51 | 52.15166 | 7.08899 | 29923 ft | 359 kts | 308° |
| 2026-04-27 15:51 | 52.16860 | 7.05928 | 29465 ft | 355 kts | 308° |
| 2026-04-27 15:51 | 52.18525 | 7.02998 | 29022 ft | 351 kts | 308° |
| 2026-04-27 15:52 | 52.20178 | 7.00080 | 28582 ft | 349 kts | 308° |
| 2026-04-27 15:52 | 52.21814 | 6.97172 | 28138 ft | 347 kts | 307° |
| 2026-04-27 15:52 | 52.23426 | 6.94119 | 27654 ft | 362 kts | 306° |
| 2026-04-27 15:52 | 52.25035 | 6.90911 | 27152 ft | 367 kts | 305° |
| 2026-04-27 15:53 | 52.26635 | 6.87650 | 26653 ft | 368 kts | 305° |
| 2026-04-27 15:53 | 52.28228 | 6.84387 | 26158 ft | 367 kts | 305° |
| 2026-04-27 15:53 | 52.29822 | 6.81134 | 25659 ft | 366 kts | 306° |
| 2026-04-27 15:53 | 52.31410 | 6.77910 | 25168 ft | 364 kts | 306° |
| 2026-04-27 15:54 | 52.33006 | 6.74697 | 24674 ft | 362 kts | 306° |
| 2026-04-27 15:54 | 52.34595 | 6.71508 | 24186 ft | 362 kts | 307° |
| 2026-04-27 15:54 | 52.36185 | 6.68318 | 23663 ft | 361 kts | 307° |
| 2026-04-27 15:54 | 52.37766 | 6.65140 | 23137 ft | 359 kts | 307° |
| 2026-04-27 15:55 | 52.39335 | 6.61984 | 22652 ft | 357 kts | 307° |
| 2026-04-27 15:55 | 52.40368 | 6.59898 | 22334 ft | 355 kts | 307° |
| 2026-04-27 15:55 | 52.42432 | 6.55711 | 21691 ft | 352 kts | 307° |
| 2026-04-27 15:55 | 52.43962 | 6.52603 | 21211 ft | 350 kts | 307° |
| 2026-04-27 15:56 | 52.45432 | 6.49440 | 20727 ft | 346 kts | 300° |
| 2026-04-27 15:56 | 52.46494 | 6.45932 | 20272 ft | 342 kts | 289° |
| 2026-04-27 15:56 | 52.47073 | 6.42168 | 19799 ft | 340 kts | 277° |
| 2026-04-27 15:56 | 52.47285 | 6.38315 | 19334 ft | 338 kts | 275° |
| 2026-04-27 15:57 | 52.47475 | 6.34457 | 18678 ft | 343 kts | 275° |
| 2026-04-27 15:57 | 52.47670 | 6.30528 | 18015 ft | 346 kts | 275° |
| 2026-04-27 15:57 | 52.47864 | 6.26611 | 17581 ft | 342 kts | 275° |
| 2026-04-27 15:57 | 52.48054 | 6.22740 | 17160 ft | 339 kts | 275° |
| 2026-04-27 15:58 | 52.48242 | 6.18906 | 16736 ft | 335 kts | 275° |
| 2026-04-27 15:58 | 52.48428 | 6.15109 | 16324 ft | 332 kts | 275° |
| 2026-04-27 15:58 | 52.48610 | 6.11355 | 15919 ft | 329 kts | 275° |
| 2026-04-27 15:58 | 52.48788 | 6.07629 | 15511 ft | 327 kts | 275° |
| 2026-04-27 15:59 | 52.48965 | 6.03919 | 15081 ft | 325 kts | 275° |
| 2026-04-27 15:59 | 52.49140 | 6.00241 | 14662 ft | 324 kts | 275° |
| 2026-04-27 15:59 | 52.49315 | 5.96560 | 14241 ft | 323 kts | 275° |
| 2026-04-27 15:59 | 52.49484 | 5.92937 | 13794 ft | 323 kts | 275° |
| 2026-04-27 16:00 | 52.49654 | 5.89274 | 13359 ft | 321 kts | 275° |
| 2026-04-27 16:00 | 52.49769 | 5.86811 | 13070 ft | 319 kts | 275° |
| 2026-04-27 16:00 | 52.49976 | 5.82359 | 12550 ft | 316 kts | 275° |
| 2026-04-27 16:00 | 52.50138 | 5.78814 | 12135 ft | 315 kts | 274° |
| 2026-04-27 16:01 | 52.50300 | 5.75239 | 11705 ft | 314 kts | 274° |
| 2026-04-27 16:01 | 52.50459 | 5.71681 | 11279 ft | 312 kts | 274° |
| 2026-04-27 16:01 | 52.50616 | 5.68141 | 10852 ft | 310 kts | 274° |
| 2026-04-27 16:01 | 52.50771 | 5.64618 | 10479 ft | 307 kts | 274° |
| 2026-04-27 16:02 | 52.50922 | 5.61181 | 10342 ft | 296 kts | 274° |
| 2026-04-27 16:02 | 52.50844 | 5.57880 | 10196 ft | 286 kts | 260° |
| 2026-04-27 16:02 | 52.50262 | 5.54808 | 9970 ft | 280 kts | 245° |
| 2026-04-27 16:02 | 52.49286 | 5.52058 | 9830 ft | 280 kts | 239° |
| 2026-04-27 16:03 | 52.48258 | 5.49340 | 9686 ft | 279 kts | 240° |
| 2026-04-27 16:03 | 52.47240 | 5.46631 | 9493 ft | 279 kts | 239° |
| 2026-04-27 16:03 | 52.46220 | 5.43912 | 9302 ft | 279 kts | 240° |
| 2026-04-27 16:03 | 52.45196 | 5.41189 | 9032 ft | 281 kts | 239° |
| 2026-04-27 16:04 | 52.44169 | 5.38460 | 8682 ft | 280 kts | 239° |
| 2026-04-27 16:04 | 52.43149 | 5.35749 | 8462 ft | 280 kts | 240° |
| 2026-04-27 16:04 | 52.42125 | 5.33035 | 8284 ft | 280 kts | 240° |
| 2026-04-27 16:04 | 52.41100 | 5.30326 | 8122 ft | 280 kts | 240° |
| 2026-04-27 16:05 | 52.40074 | 5.27622 | 7925 ft | 280 kts | 239° |
| 2026-04-27 16:05 | 52.39045 | 5.24918 | 7751 ft | 280 kts | 239° |
| 2026-04-27 16:05 | 52.38017 | 5.22210 | 7579 ft | 280 kts | 239° |
| 2026-04-27 16:05 | 52.36989 | 5.19504 | 7401 ft | 280 kts | 240° |
| 2026-04-27 16:06 | 52.35972 | 5.16831 | 7229 ft | 280 kts | 240° |
| 2026-04-27 16:06 | 52.34940 | 5.14126 | 7064 ft | 281 kts | 240° |
| 2026-04-27 16:06 | 52.33906 | 5.11418 | 6872 ft | 280 kts | 240° |
| 2026-04-27 16:06 | 52.32874 | 5.08714 | 6711 ft | 280 kts | 239° |
| 2026-04-27 16:07 | 52.31847 | 5.06025 | 6524 ft | 279 kts | 239° |
| 2026-04-27 16:07 | 52.30818 | 5.03334 | 6344 ft | 279 kts | 239° |
| 2026-04-27 16:07 | 52.29792 | 5.00651 | 6163 ft | 279 kts | 240° |
| 2026-04-27 16:07 | 52.28764 | 4.97966 | 5981 ft | 278 kts | 239° |
| 2026-04-27 16:08 | 52.27743 | 4.95308 | 5794 ft | 277 kts | 239° |
| 2026-04-27 16:08 | 52.26725 | 4.92663 | 5619 ft | 271 kts | 239° |
| 2026-04-27 16:08 | 52.25740 | 4.90112 | 5429 ft | 261 kts | 240° |
| 2026-04-27 16:08 | 52.24792 | 4.87657 | 5256 ft | 251 kts | 239° |
| 2026-04-27 16:09 | 52.23876 | 4.85287 | 5080 ft | 244 kts | 240° |
| 2026-04-27 16:09 | 52.22081 | 4.80649 | 4657 ft | 238 kts | 239° |
| 2026-04-27 16:09 | 52.21467 | 4.79146 | 4465 ft | 232 kts | 238° |
| 2026-04-27 16:10 | 52.19739 | 4.74971 | 3964 ft | 214 kts | 238° |
| 2026-04-27 16:10 | 52.18151 | 4.71125 | 3488 ft | 196 kts | 244° |
| 2026-04-27 16:11 | 52.17930 | 4.69024 | 3229 ft | 187 kts | 285° |
| 2026-04-27 16:11 | 52.18994 | 4.65245 | 2726 ft | 184 kts | 302° |
| 2026-04-27 16:12 | 52.20599 | 4.62143 | 2207 ft | 181 kts | 330° |
| 2026-04-27 16:12 | 52.21736 | 4.61378 | 1944 ft | 176 kts | 353° |
| 2026-04-27 16:12 | 52.23943 | 4.61973 | 1693 ft | 155 kts | 31° |
| 2026-04-27 16:13 | 52.24756 | 4.63055 | 1535 ft | 154 kts | 48° |
| 2026-04-27 16:13 | 52.25884 | 4.65872 | 1124 ft | 139 kts | 56° |
| 2026-04-27 16:13 | 52.26389 | 4.67180 | 936 ft | 132 kts | 56° |
| 2026-04-27 16:14 | 52.27370 | 4.69723 | 583 ft | 132 kts | 56° |
| 2026-04-27 16:14 | 52.28351 | 4.72273 | 252 ft | 133 kts | 56° |
| 2026-04-27 16:15 | 52.29309 | 4.74760 | 4 ft | 115 kts | 57° |
| 2026-04-27 16:15 | 52.29949 | 4.76426 | -3 ft | 68 kts | 58° |
| 2026-04-27 16:16 | 52.30270 | 4.77236 | -4 ft | 28 kts | 50° |
| 2026-04-27 16:16 | 52.30504 | 4.77397 | -1 ft | 14 kts | 358° |
| 2026-04-27 16:17 | 52.30670 | 4.77588 | -1 ft | 17 kts | 8° |
| 2026-04-27 16:17 | 52.30948 | 4.77618 | -1 ft | 22 kts | 4° |
| 2026-04-27 16:18 | 52.31285 | 4.77648 | -1 ft | 26 kts | 2° |
| 2026-04-27 16:18 | 52.31570 | 4.77388 | -1 ft | 27 kts | 283° |
| 2026-04-27 16:19 | 52.31568 | 4.77063 | -1 ft | 29 kts | 266° |
| 2026-04-27 16:19 | 52.31556 | 4.76728 | -1 ft | 31 kts | 267° |
| 2026-04-27 16:20 | 52.31519 | 4.75695 | -1 ft | 28 kts | 267° |
| 2026-04-27 16:20 | 52.31509 | 4.75480 | -1 ft | 11 kts | 253° |
| 2026-04-27 16:20 | 52.31386 | 4.75416 | -1 ft | 9 kts | 176° |
| 2026-04-27 16:21 | 52.31317 | 4.75422 | -1 ft | 11 kts | 177° |
| 2026-04-27 16:21 | 52.31077 | 4.75425 | -1 ft | 8 kts | 179° |
| 2026-04-27 16:22 | 52.31043 | 4.75446 | -1 ft | 2 kts | 148° |
| 2026-04-27 16:22 | 52.31024 | 4.75465 | -1 ft | 0 kts | 148° |